createdAt,value
2018-09-19T00:00:38.170Z,96.90
2018-09-19T00:03:10.841Z,97.00
2018-09-19T00:05:43.467Z,97.00
2018-09-19T00:08:16.156Z,97.10
2018-09-19T00:10:48.819Z,97.20
2018-09-19T00:13:22.351Z,97.20
2018-09-19T00:15:55.001Z,97.30
2018-09-19T00:18:27.638Z,97.50
2018-09-19T00:21:00.335Z,97.70
2018-09-19T00:23:33.052Z,97.80
2018-09-19T00:26:05.660Z,97.80
2018-09-19T00:28:38.281Z,97.80
2018-09-19T00:31:10.879Z,97.80
2018-09-19T00:33:43.517Z,97.90
2018-09-19T00:36:16.140Z,97.90
2018-09-19T00:38:48.875Z,97.60
2018-09-19T00:41:21.585Z,97.90
2018-09-19T00:43:54.219Z,98.00
2018-09-19T00:46:27.783Z,98.10
2018-09-19T00:49:00.685Z,98.30
2018-09-19T00:51:33.346Z,98.30
2018-09-19T00:54:05.669Z,98.40
2018-09-19T00:56:38.386Z,98.50
2018-09-19T00:59:11.034Z,98.70
2018-09-19T01:01:43.690Z,98.80
2018-09-19T01:04:19.549Z,98.80
2018-09-19T01:06:53.850Z,98.80
2018-09-19T01:09:28.224Z,98.80
2018-09-19T01:12:00.891Z,98.90
2018-09-19T01:14:34.187Z,99.20
2018-09-19T01:17:07.532Z,99.20
2018-09-19T01:19:40.372Z,99.10
2018-09-19T01:22:13.686Z,99.10
2018-09-19T01:24:46.377Z,99.10
2018-09-19T01:27:21.475Z,98.90
2018-09-19T01:29:54.119Z,98.70
2018-09-19T01:32:26.746Z,98.70
2018-09-19T01:34:59.342Z,98.20
2018-09-19T01:37:32.884Z,98.30
2018-09-19T01:40:05.704Z,98.10
2018-09-19T01:42:38.398Z,98.00
2018-09-19T01:45:13.097Z,98.10
2018-09-19T01:47:45.873Z,98.00
2018-09-19T01:50:19.372Z,97.60
2018-09-19T01:52:51.981Z,97.30
2018-09-19T01:55:27.808Z,97.20
2018-09-19T01:58:01.364Z,97.10
2018-09-19T02:00:34.993Z,97.00
2018-09-19T02:03:08.640Z,97.00
2018-09-19T02:05:41.320Z,97.00
2018-09-19T02:08:15.076Z,97.00
2018-09-19T02:10:47.780Z,97.00
2018-09-19T02:13:21.655Z,97.00
2018-09-19T02:15:54.904Z,97.00
2018-09-19T02:18:28.132Z,97.10
2018-09-19T02:21:00.693Z,97.10
2018-09-19T02:23:33.328Z,97.20
2018-09-19T02:26:08.107Z,97.20
2018-09-19T02:28:43.856Z,97.20
2018-09-19T02:31:16.383Z,97.40
2018-09-19T02:33:49.067Z,97.60
2018-09-19T02:36:25.696Z,97.70
2018-09-19T02:38:59.391Z,97.70
2018-09-19T02:41:32.015Z,97.80
2018-09-19T02:44:04.708Z,97.70
2018-09-19T02:46:39.446Z,97.80
2018-09-19T02:49:12.448Z,97.90
2018-09-19T02:51:45.099Z,98.00
2018-09-19T02:54:17.713Z,98.10
2018-09-19T02:56:50.398Z,98.20
2018-09-19T02:59:23.022Z,98.20
2018-09-19T03:01:56.605Z,98.30
2018-09-19T03:04:29.309Z,98.30
2018-09-19T03:07:01.947Z,98.30
2018-09-19T03:09:36.091Z,98.40
2018-09-19T03:12:11.032Z,98.40
2018-09-19T03:14:43.718Z,98.50
2018-09-19T03:17:18.556Z,98.50
2018-09-19T03:19:51.294Z,98.60
2018-09-19T03:22:23.964Z,98.70
2018-09-19T03:24:57.221Z,98.70
2018-09-19T03:27:30.334Z,98.90
2018-09-19T03:30:03.349Z,99.00
2018-09-19T03:32:37.121Z,99.00
2018-09-19T03:35:09.820Z,99.10
2018-09-19T03:37:43.496Z,99.10
2018-09-19T03:40:16.478Z,99.30
2018-09-19T03:42:49.986Z,99.30
2018-09-19T03:45:22.720Z,99.40
2018-09-19T03:47:55.408Z,99.30
2018-09-19T03:50:28.697Z,99.30
2018-09-19T03:53:02.399Z,99.40
2018-09-19T03:55:35.633Z,99.40
2018-09-19T03:58:08.535Z,99.70
2018-09-19T04:00:41.206Z,99.60
2018-09-19T04:03:23.928Z,99.70
2018-09-19T04:05:56.736Z,99.80
2018-09-19T04:08:39.522Z,99.80
2018-09-19T04:11:12.326Z,99.80
2018-09-19T04:13:45.107Z,99.90
2018-09-19T04:16:18.678Z,99.90
2018-09-19T04:18:51.496Z,99.90
2018-09-19T04:21:24.213Z,99.90
2018-09-19T04:24:08.223Z,99.90
2018-09-19T04:26:42.967Z,99.90
2018-09-19T04:29:17.662Z,99.90
2018-09-19T04:31:52.001Z,99.90
2018-09-19T04:34:25.710Z,99.90
2018-09-19T04:37:02.261Z,99.90
2018-09-19T04:39:35.129Z,99.90
2018-09-19T04:42:09.226Z,99.90
2018-09-19T04:45:06.253Z,99.90
2018-09-19T04:47:39.652Z,99.90
2018-09-19T04:50:20.381Z,99.90
2018-09-19T04:52:53.798Z,99.90
2018-09-19T04:55:26.533Z,99.90
2018-09-19T04:57:59.867Z,99.90
2018-09-19T05:00:35.697Z,99.90
2018-09-19T05:03:08.823Z,99.90
2018-09-19T05:05:42.405Z,99.90
2018-09-19T05:08:16.449Z,99.90
2018-09-19T05:10:49.271Z,99.90
2018-09-19T05:13:22.965Z,99.90
2018-09-19T05:15:55.773Z,99.90
2018-09-19T05:18:29.640Z,99.90
2018-09-19T05:21:05.786Z,99.90
2018-09-19T05:23:40.838Z,99.90
2018-09-19T05:26:13.847Z,99.90
2018-09-19T05:28:49.645Z,99.90
2018-09-19T05:31:23.378Z,99.90
2018-09-19T05:38:34.192Z,99.90
2018-09-19T05:41:07.369Z,99.90
2018-09-19T05:43:40.830Z,99.90
2018-09-19T05:46:15.187Z,99.90
2018-09-19T05:48:47.930Z,99.90
2018-09-19T05:51:27.331Z,99.90
2018-09-19T05:54:00.008Z,99.90
2018-09-19T05:56:32.866Z,99.90
2018-09-19T05:59:36.945Z,99.90
2018-09-19T06:02:11.715Z,99.90
2018-09-19T06:04:45.197Z,99.90
2018-09-19T06:08:57.493Z,99.90
2018-09-19T06:11:32.856Z,99.90
2018-09-19T06:14:06.654Z,99.90
2018-09-19T06:16:39.483Z,99.90
2018-09-19T06:19:12.225Z,99.90
2018-09-19T06:21:44.980Z,99.90
2018-09-19T06:24:17.662Z,99.70
2018-09-19T06:26:51.008Z,99.60
2018-09-19T06:29:23.729Z,99.50
2018-09-19T06:31:56.408Z,99.40
2018-09-19T06:34:29.041Z,99.30
2018-09-19T06:37:01.705Z,99.30
2018-09-19T06:39:35.286Z,99.20
2018-09-19T06:42:07.966Z,99.20
2018-09-19T06:44:42.288Z,98.80
2018-09-19T06:47:15.471Z,98.60
2018-09-19T06:49:48.281Z,98.50
2018-09-19T06:52:21.249Z,98.40
2018-09-19T06:54:54.018Z,98.30
2018-09-19T06:57:26.892Z,98.30
2018-09-19T07:00:01.179Z,97.90
2018-09-19T07:02:34.025Z,97.90
2018-09-19T07:05:07.838Z,97.80
2018-09-19T07:07:40.748Z,97.70
2018-09-19T07:10:13.642Z,98.00
2018-09-19T07:12:46.466Z,98.20
2018-09-19T07:15:19.893Z,98.20
2018-09-19T07:17:52.731Z,98.30
2018-09-19T07:20:25.528Z,98.40
2018-09-19T07:23:00.992Z,98.40
2018-09-19T07:25:33.834Z,98.40
2018-09-19T07:28:07.010Z,98.40
2018-09-19T07:30:39.866Z,98.00
2018-09-19T07:33:13.193Z,98.00
2018-09-19T07:35:46.390Z,98.10
2018-09-19T07:38:19.305Z,98.20
2018-09-19T07:40:52.428Z,98.10
2018-09-19T07:43:26.636Z,98.00
2018-09-19T07:46:00.963Z,97.80
2018-09-19T07:48:33.816Z,97.70
2018-09-19T07:51:06.618Z,97.50
2018-09-19T07:53:39.643Z,97.30
2018-09-19T07:56:12.468Z,97.20
2018-09-19T07:58:45.412Z,97.00
2018-09-19T08:01:19.092Z,96.80
2018-09-19T08:03:51.749Z,96.60
2018-09-19T08:06:24.554Z,96.50
2018-09-19T08:08:57.897Z,96.20
2018-09-19T08:11:30.699Z,96.00
2018-09-19T08:14:03.851Z,95.70
2018-09-19T08:16:36.745Z,95.40
2018-09-19T08:19:09.623Z,95.50
2018-09-19T08:21:43.237Z,95.60
2018-09-19T08:24:16.047Z,95.80
2018-09-19T08:26:49.591Z,95.50
2018-09-19T08:29:22.776Z,95.70
2018-09-19T08:31:55.399Z,96.10
2018-09-19T08:34:28.089Z,96.00
2018-09-19T08:37:01.021Z,96.10
2018-09-19T08:39:34.056Z,96.10
2018-09-19T08:42:06.880Z,96.10
2018-09-19T08:44:39.929Z,96.10
2018-09-19T08:47:12.681Z,96.20
2018-09-19T08:49:45.461Z,96.20
2018-09-19T08:52:18.171Z,96.00
2018-09-19T08:54:51.334Z,96.10
2018-09-19T08:57:23.989Z,95.70
2018-09-19T08:59:56.701Z,95.70
2018-09-19T09:02:29.387Z,95.60
2018-09-19T09:05:02.734Z,95.50
2018-09-19T09:07:35.783Z,95.10
2018-09-19T09:10:08.453Z,94.50
2018-09-19T09:12:41.243Z,94.40
2018-09-19T09:15:13.926Z,94.70
2018-09-19T09:17:46.531Z,94.70
2018-09-19T09:20:19.272Z,94.60
2018-09-19T09:22:51.967Z,94.80
2018-09-19T09:25:24.568Z,94.60
2018-09-19T09:27:57.304Z,94.80
2018-09-19T09:30:29.944Z,94.90
2018-09-19T09:33:02.866Z,95.10
2018-09-19T09:35:35.899Z,95.10
2018-09-19T09:38:09.081Z,95.40
2018-09-19T09:40:41.800Z,95.50
2018-09-19T09:43:14.628Z,95.70
2018-09-19T09:45:47.552Z,95.90
2018-09-19T09:48:20.655Z,95.80
2018-09-19T09:50:53.779Z,95.50
2018-09-19T09:53:26.527Z,95.40
2018-09-19T09:55:59.355Z,95.30
2018-09-19T09:58:32.033Z,95.30
2018-09-19T10:01:04.925Z,95.20
2018-09-19T10:03:37.624Z,95.20
2018-09-19T10:06:10.312Z,95.40
2018-09-19T10:08:44.234Z,95.60
2018-09-19T10:11:17.953Z,95.30
2018-09-19T10:13:50.733Z,95.30
2018-09-19T10:16:24.315Z,95.40
2018-09-19T10:18:57.074Z,95.50
2018-09-19T10:21:53.033Z,95.50
2018-09-19T10:24:25.786Z,95.20
2018-09-19T10:26:58.458Z,95.40
2018-09-19T10:29:31.199Z,95.50
2018-09-19T10:32:04.467Z,95.60
2018-09-19T10:34:37.260Z,95.30
2018-09-19T10:37:10.943Z,95.20
2018-09-19T10:39:44.246Z,94.90
2018-09-19T10:42:17.085Z,94.40
2018-09-19T10:44:49.725Z,94.20
2018-09-19T10:47:22.488Z,94.10
2018-09-19T10:49:55.175Z,93.90
2018-09-19T10:52:27.883Z,94.00
2018-09-19T10:55:00.574Z,93.70
2018-09-19T10:57:33.239Z,93.70
2018-09-19T11:00:07.171Z,93.50
2018-09-19T11:02:39.827Z,93.30
2018-09-19T11:05:12.411Z,93.50
2018-09-19T11:07:45.304Z,93.90
2018-09-19T11:10:18.016Z,94.20
2018-09-19T11:12:50.729Z,94.40
2018-09-19T11:15:23.435Z,94.80
2018-09-19T11:17:56.084Z,94.60
2018-09-19T11:20:28.896Z,94.00
2018-09-19T11:23:01.542Z,93.70
2018-09-19T11:25:35.119Z,93.70
2018-09-19T11:28:07.792Z,93.60
2018-09-19T11:30:41.292Z,93.70
2018-09-19T11:33:13.999Z,93.60
2018-09-19T11:35:48.045Z,93.00
2018-09-19T11:38:20.968Z,92.90
2018-09-19T11:40:53.604Z,92.60
2018-09-19T11:43:26.370Z,92.50
2018-09-19T11:45:59.828Z,92.30
2018-09-19T11:48:32.510Z,92.00
2018-09-19T11:51:05.342Z,91.70
2018-09-19T11:53:38.019Z,91.80
2018-09-19T11:56:12.840Z,92.40
2018-09-19T11:58:46.017Z,92.60
2018-09-19T12:01:18.809Z,92.70
2018-09-19T12:03:51.468Z,92.60
2018-09-19T12:06:24.200Z,92.50
2018-09-19T12:08:56.914Z,92.60
2018-09-19T12:11:29.647Z,93.00
2018-09-19T12:14:02.312Z,93.00
2018-09-19T12:16:35.329Z,93.30
2018-09-19T12:19:08.142Z,93.00
2018-09-19T12:21:40.744Z,93.00
2018-09-19T12:24:13.468Z,93.40
2018-09-19T12:26:46.166Z,94.00
2018-09-19T12:29:19.357Z,94.30
2018-09-19T12:31:52.054Z,94.60
2018-09-19T12:34:24.771Z,94.70
2018-09-19T12:36:58.161Z,94.90
2018-09-19T12:39:31.060Z,94.80
2018-09-19T12:42:04.416Z,94.70
2018-09-19T12:44:37.210Z,95.20
2018-09-19T12:47:09.892Z,95.20
2018-09-19T12:49:42.582Z,95.20
2018-09-19T12:52:15.694Z,95.70
2018-09-19T12:54:48.647Z,95.90
2018-09-19T12:57:22.602Z,96.20
2018-09-19T12:59:55.286Z,96.20
2018-09-19T13:02:28.009Z,96.30
2018-09-19T13:05:01.719Z,96.50
2018-09-19T13:07:35.129Z,96.70
2018-09-19T13:10:07.986Z,96.80
2018-09-19T13:12:40.978Z,96.80
2018-09-19T13:15:13.887Z,96.80
2018-09-19T13:17:46.588Z,96.80
2018-09-19T13:20:19.352Z,97.20
2018-09-19T13:22:52.061Z,97.00
2018-09-19T13:25:24.755Z,96.80
2018-09-19T13:27:57.648Z,97.10
2018-09-19T13:30:30.305Z,97.30
2018-09-19T13:33:03.810Z,97.20
2018-09-19T13:35:37.224Z,97.10
2018-09-19T13:38:09.875Z,97.10
2018-09-19T13:40:42.594Z,97.20
2018-09-19T13:43:15.408Z,97.30
2018-09-19T13:45:48.205Z,97.30
2018-09-19T13:48:20.993Z,97.60
2018-09-19T13:50:59.794Z,97.60
2018-09-19T13:53:32.572Z,98.00
2018-09-19T13:56:05.368Z,98.10
2018-09-19T13:58:39.420Z,98.00
2018-09-19T14:01:15.552Z,98.20
2018-09-19T14:03:49.794Z,98.20
2018-09-19T14:06:23.631Z,98.00
2018-09-19T14:08:56.397Z,98.00
2018-09-19T14:11:29.073Z,97.90
2018-09-19T14:14:01.785Z,97.70
2018-09-19T14:16:34.682Z,97.60
2018-09-19T14:19:07.932Z,97.70
2018-09-19T14:21:41.562Z,97.60
2018-09-19T14:24:16.803Z,97.40
2018-09-19T14:26:49.861Z,97.50
2018-09-19T14:29:23.191Z,97.60
2018-09-19T14:31:58.947Z,97.50
2018-09-19T14:34:31.902Z,97.40
2018-09-19T14:37:07.727Z,97.40
2018-09-19T14:39:42.179Z,97.30
2018-09-19T14:42:15.905Z,97.20
2018-09-19T14:44:51.664Z,97.10
2018-09-19T14:47:29.791Z,97.00
2018-09-19T14:50:02.678Z,97.20
2018-09-19T14:52:35.472Z,97.40
2018-09-19T14:55:08.996Z,97.40
2018-09-19T14:57:42.076Z,97.80
2018-09-19T15:00:15.675Z,97.30
2018-09-19T15:02:50.066Z,97.10
2018-09-19T15:05:27.696Z,97.30
2018-09-19T15:08:07.336Z,97.20
2018-09-19T15:10:41.053Z,97.10
2018-09-19T15:13:15.754Z,97.10
2018-09-19T15:15:51.420Z,97.10
2018-09-19T15:18:24.238Z,97.10
2018-09-19T15:20:56.994Z,97.10
2018-09-19T15:23:29.682Z,97.10
2018-09-19T15:26:03.206Z,97.40
2018-09-19T15:28:36.071Z,97.30
2018-09-19T15:31:08.834Z,97.50
2018-09-19T15:33:43.503Z,97.40
2018-09-19T15:36:16.235Z,97.30
2018-09-19T15:38:48.920Z,97.20
2018-09-19T15:41:21.836Z,97.10
2018-09-19T15:43:54.586Z,97.10
2018-09-19T15:46:27.268Z,97.20
2018-09-19T15:49:00.324Z,97.30
2018-09-19T15:51:33.056Z,97.40
2018-09-19T15:54:05.784Z,97.50
2018-09-19T15:56:38.512Z,97.50
2018-09-19T15:59:11.190Z,97.70
2018-09-19T16:01:43.888Z,97.80
2018-09-19T16:04:16.968Z,97.90
2018-09-19T16:06:50.046Z,97.80
2018-09-19T16:09:22.720Z,98.00
2018-09-19T16:11:55.464Z,98.00
2018-09-19T16:14:28.199Z,98.00
2018-09-19T16:17:00.918Z,97.90
2018-09-19T16:19:33.911Z,97.80
2018-09-19T16:22:06.611Z,97.90
2018-09-19T16:24:39.354Z,98.30
2018-09-19T16:27:12.122Z,97.90
2018-09-19T16:29:44.951Z,97.80
2018-09-19T16:32:18.519Z,97.90
2018-09-19T16:34:53.117Z,97.80
2018-09-19T16:37:25.785Z,97.60
2018-09-19T16:39:58.530Z,97.60
2018-09-19T16:42:31.175Z,97.60
2018-09-19T16:45:04.545Z,97.70
2018-09-19T16:47:37.338Z,97.70
2018-09-19T16:50:10.252Z,97.60
2018-09-19T16:52:44.008Z,97.60
2018-09-19T16:55:17.915Z,97.70
2018-09-19T16:57:50.706Z,97.70
2018-09-19T17:23:41.103Z,97.30
2018-09-19T17:28:56.348Z,97.40
2018-09-19T17:31:37.058Z,97.30
2018-09-19T17:34:11.491Z,97.30
2018-09-19T17:36:45.582Z,97.40
2018-09-19T17:39:20.172Z,97.60
2018-09-19T17:41:53.633Z,97.80
2018-09-19T17:44:27.533Z,98.00
2018-09-19T17:47:00.527Z,98.10
2018-09-19T17:49:39.809Z,98.20
2018-09-19T17:52:15.032Z,98.10
2018-09-19T17:54:48.914Z,98.30
2018-09-19T17:57:23.814Z,98.30
2018-09-19T17:59:58.874Z,98.40
2018-09-19T18:02:32.834Z,98.40
2018-09-19T18:05:07.704Z,98.50
2018-09-19T18:07:40.672Z,98.50
2018-09-19T18:10:13.938Z,98.50
2018-09-19T18:12:47.306Z,98.40
2018-09-19T18:15:23.799Z,98.50
2018-09-19T18:17:56.893Z,98.50
2018-09-19T18:20:29.757Z,98.50
2018-09-19T18:23:07.259Z,98.70
2018-09-19T18:25:43.071Z,98.70
2018-09-19T18:28:16.873Z,98.70
2018-09-19T18:30:49.873Z,98.60
2018-09-19T18:33:23.388Z,98.60
2018-09-19T18:35:58.355Z,98.50
2018-09-19T18:38:32.749Z,98.40
2018-09-19T18:41:08.881Z,98.40
2018-09-19T18:43:43.257Z,98.30
2018-09-19T18:46:17.362Z,98.20
2018-09-19T18:48:50.640Z,98.00
2018-09-19T18:51:24.734Z,98.00
2018-09-19T18:53:58.511Z,97.90
2018-09-19T18:56:32.605Z,97.90
2018-09-19T18:59:08.332Z,97.90
2018-09-19T19:01:41.270Z,98.00
2018-09-19T19:07:29.691Z,98.00
2018-09-19T19:10:04.397Z,98.10
2018-09-19T19:12:39.764Z,98.00
2018-09-19T19:15:16.327Z,98.10
2018-09-19T19:17:52.425Z,98.10
2018-09-19T19:20:28.717Z,98.20
2018-09-19T19:23:02.208Z,98.00
2018-09-19T19:25:35.666Z,97.80
2018-09-19T19:28:09.305Z,97.70
2018-09-19T19:30:42.378Z,98.00
2018-09-19T19:33:15.526Z,97.60
2018-09-19T19:35:49.315Z,97.40
2018-09-19T19:38:24.252Z,97.50
2018-09-19T19:41:04.875Z,97.50
2018-09-19T19:43:38.875Z,97.30
2018-09-19T19:46:11.853Z,97.00
2018-09-19T19:48:45.634Z,96.90
2018-09-19T19:51:18.866Z,96.70
2018-09-19T19:53:53.005Z,96.70
2018-09-19T19:56:25.912Z,96.70
2018-09-19T19:58:59.435Z,96.70
2018-09-19T20:01:32.267Z,96.60
2018-09-19T20:04:05.769Z,96.30
2018-09-19T20:06:38.877Z,96.50
2018-09-19T20:09:16.366Z,96.00
2018-09-19T20:11:50.055Z,95.90
2018-09-19T20:14:24.645Z,95.90
2018-09-19T20:17:00.113Z,95.80
2018-09-19T20:19:34.053Z,95.60
2018-09-19T20:22:08.736Z,95.60
2018-09-19T20:24:43.200Z,95.60
2018-09-19T20:27:22.537Z,95.40
2018-09-19T20:29:56.567Z,95.40
2018-09-19T20:32:29.823Z,95.40
2018-09-19T20:35:02.533Z,95.40
2018-09-19T20:37:35.684Z,95.40
2018-09-19T20:40:09.319Z,95.40
2018-09-19T20:42:42.077Z,95.50
2018-09-19T20:45:14.868Z,95.40
2018-09-19T20:47:47.591Z,95.20
2018-09-19T20:50:20.858Z,95.20
2018-09-19T20:52:53.560Z,95.20
2018-09-19T20:55:26.286Z,95.00
2018-09-19T20:57:58.956Z,95.10
2018-09-19T21:00:31.801Z,95.10
2018-09-19T21:03:04.414Z,95.20
2018-09-19T21:05:37.098Z,95.10
2018-09-19T21:08:09.761Z,95.20
2018-09-19T21:10:42.415Z,95.30
2018-09-19T21:13:15.110Z,95.20
2018-09-19T21:15:47.872Z,95.00
2018-09-19T21:18:20.501Z,94.90
2018-09-19T21:20:53.208Z,94.80
2018-09-19T21:23:26.480Z,94.90
2018-09-19T21:25:59.087Z,94.80
2018-09-19T21:28:31.851Z,94.70
2018-09-19T21:31:05.060Z,94.80
2018-09-19T21:33:37.714Z,94.90
2018-09-19T21:36:10.450Z,94.90
2018-09-19T21:38:44.153Z,94.80
2018-09-19T21:41:16.773Z,95.00
2018-09-19T21:43:50.500Z,95.50
2018-09-19T21:46:23.113Z,95.20
2018-09-19T21:48:56.059Z,95.30
2018-09-19T21:51:28.705Z,95.20
2018-09-19T21:54:01.720Z,95.30
2018-09-19T21:56:34.333Z,95.40
2018-09-19T21:59:07.596Z,95.50
2018-09-19T22:01:40.884Z,95.50
2018-09-19T22:04:13.564Z,95.50
2018-09-19T22:06:46.604Z,95.50
2018-09-19T22:09:19.660Z,95.50
2018-09-19T22:11:52.260Z,95.50
2018-09-19T22:14:24.971Z,95.40
2018-09-19T22:16:57.687Z,95.30
2018-09-19T22:19:30.623Z,95.20
2018-09-19T22:22:04.182Z,95.20
2018-09-19T22:24:37.398Z,95.20
2018-09-19T22:27:10.016Z,95.60
2018-09-19T22:29:42.716Z,95.30
2018-09-19T22:32:16.367Z,95.30
2018-09-19T22:34:49.313Z,95.30
2018-09-19T22:37:23.657Z,95.30
2018-09-19T22:39:56.310Z,95.30
2018-09-19T22:42:28.989Z,95.30
2018-09-19T22:45:01.611Z,95.40
2018-09-19T22:47:34.267Z,95.40
2018-09-19T22:50:07.254Z,95.40
2018-09-19T22:52:40.949Z,95.40
2018-09-19T22:55:16.562Z,95.40
2018-09-19T22:57:49.521Z,95.40
2018-09-19T23:00:23.259Z,95.40
2018-09-19T23:02:56.684Z,95.70
2018-09-19T23:05:29.329Z,95.40
2018-09-19T23:08:02.002Z,95.50
2018-09-19T23:10:34.639Z,95.40
2018-09-19T23:13:07.856Z,95.50
2018-09-19T23:15:40.768Z,95.60
2018-09-19T23:18:13.410Z,95.70
2018-09-19T23:20:46.647Z,95.70
2018-09-19T23:23:19.288Z,95.90
2018-09-19T23:25:51.919Z,95.90
2018-09-19T23:28:24.725Z,96.00
2018-09-19T23:30:57.324Z,96.20
2018-09-19T23:33:39.617Z,96.80
